createdAt,value
2023-05-24T00:02:16.389Z,98463.38
2023-05-24T00:04:45.279Z,98467.91
2023-05-24T00:07:12.662Z,98468.56
2023-05-24T00:09:39.472Z,98463.09
2023-05-24T00:12:06.620Z,98466.72
2023-05-24T00:14:33.662Z,98464.88
2023-05-24T00:17:00.882Z,98467.06
2023-05-24T00:19:27.765Z,98462.81
2023-05-24T00:21:55.554Z,98465.63
2023-05-24T00:24:22.306Z,98467.63
2023-05-24T00:26:49.599Z,98468.09
2023-05-24T00:29:16.413Z,98470.16
2023-05-24T00:31:43.546Z,98475.81
2023-05-24T00:34:10.465Z,98472.69
2023-05-24T00:36:38.309Z,98468.53
2023-05-24T00:39:05.261Z,98470.25
2023-05-24T00:41:32.459Z,98472.97
2023-05-24T00:43:59.304Z,98476.25
2023-05-24T00:46:29.072Z,98472.78
2023-05-24T00:48:56.085Z,98472.56
2023-05-24T00:51:23.201Z,98478.44
2023-05-24T00:53:50.016Z,98482.53
2023-05-24T00:56:17.357Z,98493.59
2023-05-24T00:58:44.514Z,98488.47
2023-05-24T01:01:11.730Z,98488.34
2023-05-24T01:03:39.641Z,98490.44
2023-05-24T01:06:07.983Z,98495.91
2023-05-24T01:08:38.763Z,98491.75
2023-05-24T01:11:14.752Z,98495.50
2023-05-24T01:13:59.607Z,98498.69
2023-05-24T01:17:11.781Z,98492.88
2023-05-24T01:19:57.620Z,98490.13
2023-05-24T01:22:28.670Z,98494.25
2023-05-24T01:25:06.414Z,98490.00
2023-05-24T01:27:34.148Z,98494.53
2023-05-24T01:30:01.218Z,98490.66
2023-05-24T01:32:28.629Z,98505.59
2023-05-24T01:34:55.554Z,98495.66
2023-05-24T01:37:22.789Z,98500.44
2023-05-24T01:39:49.529Z,98501.59
2023-05-24T01:42:27.943Z,98500.81
2023-05-24T01:45:16.957Z,98503.56
2023-05-24T01:48:08.865Z,98506.66
2023-05-24T01:50:37.518Z,98502.69
2023-05-24T01:53:07.228Z,98511.63
2023-05-24T01:55:34.340Z,98509.38
2023-05-24T01:58:03.100Z,98514.66
2023-05-24T02:00:29.956Z,98514.84
2023-05-24T02:02:57.859Z,98515.84
2023-05-24T02:05:24.952Z,98528.03
2023-05-24T02:07:51.975Z,98528.50
2023-05-24T02:10:18.805Z,98519.44
2023-05-24T02:12:45.902Z,98518.91
2023-05-24T02:15:14.752Z,98527.63
2023-05-24T02:17:42.959Z,98521.50
2023-05-24T02:20:10.951Z,98522.25
2023-05-24T02:22:38.264Z,98519.69
2023-05-24T02:25:05.502Z,98524.28
2023-05-24T02:27:32.605Z,98518.94
2023-05-24T02:29:59.419Z,98510.63
2023-05-24T02:32:26.471Z,98519.19
2023-05-24T02:34:53.283Z,98518.50
2023-05-24T02:37:20.730Z,98518.69
2023-05-24T02:39:47.607Z,98516.00
2023-05-24T02:42:14.658Z,98518.88
2023-05-24T02:44:42.844Z,98516.88
2023-05-24T02:47:09.958Z,98518.56
2023-05-24T02:49:36.755Z,98523.34
2023-05-24T02:52:04.000Z,98526.44
2023-05-24T02:54:30.812Z,98525.91
2023-05-24T02:56:58.120Z,98532.41
2023-05-24T02:59:24.980Z,98537.19
2023-05-24T03:01:52.037Z,98545.56
2023-05-24T03:04:18.794Z,98544.22
2023-05-24T03:06:45.862Z,98549.03
2023-05-24T03:09:13.068Z,98550.72
2023-05-24T03:11:40.103Z,98547.13
2023-05-24T03:14:06.860Z,98556.53
2023-05-24T03:16:33.916Z,98554.50
2023-05-24T03:19:00.771Z,98554.84
2023-05-24T03:21:27.789Z,98560.50
2023-05-24T03:23:54.547Z,98562.22
2023-05-24T03:26:21.971Z,98572.75
2023-05-24T03:28:50.603Z,98572.94
2023-05-24T03:31:20.796Z,98572.63
2023-05-24T03:33:47.864Z,98578.78
2023-05-24T03:36:14.910Z,98583.38
2023-05-24T03:38:41.654Z,98600.97
2023-05-24T03:41:08.730Z,98590.03
2023-05-24T03:43:35.562Z,98596.69
2023-05-24T03:48:29.445Z,98592.47
2023-05-24T03:50:56.488Z,98602.41
2023-05-24T03:53:23.566Z,98599.84
2023-05-24T03:55:51.050Z,98607.00
2023-05-24T03:58:17.843Z,98604.63
2023-05-24T04:00:45.105Z,98611.94
2023-05-24T04:03:12.443Z,98606.31
2023-05-24T04:05:39.777Z,98606.16
2023-05-24T04:08:06.611Z,98611.44
2023-05-24T04:10:33.704Z,98611.78
2023-05-24T04:13:00.813Z,98622.19
2023-05-24T04:15:27.963Z,98618.63
2023-05-24T04:17:55.756Z,98618.28
2023-05-24T04:20:27.604Z,98621.00
2023-05-24T04:22:54.635Z,98631.22
2023-05-24T04:25:22.051Z,98636.50
2023-05-24T04:27:48.890Z,98644.00
2023-05-24T04:30:16.702Z,98647.97
2023-05-24T04:32:44.721Z,98654.25
2023-05-24T04:35:12.017Z,98652.38
2023-05-24T04:37:40.408Z,98664.66
2023-05-24T04:40:08.343Z,98668.56
2023-05-24T04:42:35.515Z,98671.97
2023-05-24T04:45:02.952Z,98675.91
2023-05-24T04:47:30.030Z,98672.00
2023-05-24T04:49:57.118Z,98679.28
2023-05-24T04:52:23.873Z,98680.16
2023-05-24T04:54:51.264Z,98683.06
2023-05-24T04:57:18.073Z,98681.69
2023-05-24T04:59:45.161Z,98691.91
2023-05-24T05:02:12.111Z,98691.97
2023-05-24T05:04:39.405Z,98700.16
2023-05-24T05:07:06.161Z,98697.88
2023-05-24T05:09:33.197Z,98704.31
2023-05-24T05:12:00.025Z,98713.81
2023-05-24T05:14:27.113Z,98705.13
2023-05-24T05:16:53.843Z,98717.38
2023-05-24T05:19:21.612Z,98719.06
2023-05-24T05:21:48.376Z,98725.53
2023-05-24T05:24:16.441Z,98724.38
2023-05-24T05:26:43.204Z,98725.53
2023-05-24T05:29:10.248Z,98734.22
2023-05-24T05:31:37.074Z,98735.00
2023-05-24T05:34:04.159Z,98724.00
2023-05-24T05:36:31.215Z,98743.94
2023-05-24T05:38:58.307Z,98738.84
2023-05-24T05:41:25.099Z,98735.97
2023-05-24T05:43:52.106Z,98738.28
2023-05-24T05:46:20.941Z,98741.69
2023-05-24T05:48:48.150Z,98736.41
2023-05-24T05:51:14.848Z,98740.00
2023-05-24T05:53:41.913Z,98750.91
2023-05-24T05:56:08.678Z,98749.81
2023-05-24T05:58:35.927Z,98751.16
2023-05-24T06:01:02.668Z,98752.88
2023-05-24T06:03:29.921Z,98754.34
2023-05-24T06:05:56.898Z,98757.78
2023-05-24T06:08:23.977Z,98754.69
2023-05-24T06:10:52.961Z,98758.56
2023-05-24T06:13:20.246Z,98765.84
2023-05-24T06:15:47.016Z,98768.03
2023-05-24T06:18:15.475Z,98770.63
2023-05-24T06:20:42.520Z,98784.69
2023-05-24T06:23:09.779Z,98783.47
2023-05-24T06:25:38.719Z,98781.88
2023-05-24T06:28:05.975Z,98790.00
2023-05-24T06:30:33.776Z,98789.47
2023-05-24T06:33:01.655Z,98791.66
2023-05-24T06:35:28.500Z,98790.78
2023-05-24T06:37:57.559Z,98803.22
2023-05-24T06:40:24.510Z,98808.06
2023-05-24T06:42:51.564Z,98808.47
2023-05-24T06:45:18.350Z,98809.59
2023-05-24T06:47:45.605Z,98806.19
2023-05-24T06:50:12.394Z,98807.22
2023-05-24T06:52:39.628Z,98807.84
2023-05-24T06:55:06.555Z,98803.38
2023-05-24T06:57:33.599Z,98813.59
2023-05-24T07:00:00.364Z,98816.22
2023-05-24T07:02:28.721Z,98813.66
2023-05-24T07:04:55.765Z,98827.28
2023-05-24T07:07:23.029Z,98820.22
2023-05-24T07:09:49.903Z,98824.84
2023-05-24T07:12:17.049Z,98829.94
2023-05-24T07:14:43.887Z,98829.78
2023-05-24T07:17:11.140Z,98833.56
2023-05-24T07:19:38.153Z,98835.91
2023-05-24T07:22:05.399Z,98837.47
2023-05-24T07:24:32.182Z,98834.03
2023-05-24T07:26:59.337Z,98842.94
2023-05-24T07:29:26.262Z,98843.53
2023-05-24T07:31:56.196Z,98851.56
2023-05-24T07:34:23.945Z,98853.97
2023-05-24T07:36:51.061Z,98855.78
2023-05-24T07:39:17.910Z,98859.06
2023-05-24T07:41:45.229Z,98858.69
2023-05-24T07:44:13.403Z,98859.72
2023-05-24T07:46:40.606Z,98859.97
2023-05-24T07:49:07.464Z,98860.88
2023-05-24T07:51:34.507Z,98868.94
2023-05-24T07:54:01.554Z,98869.78
2023-05-24T07:56:29.234Z,98871.44
2023-05-24T07:59:03.439Z,98876.28
2023-05-24T08:01:32.080Z,98884.97
2023-05-24T08:03:58.960Z,98878.78
2023-05-24T08:06:26.584Z,98880.19
2023-05-24T08:08:53.495Z,98876.06
2023-05-24T08:11:20.585Z,98882.81
2023-05-24T08:13:47.789Z,98880.34
2023-05-24T08:16:14.948Z,98886.72
2023-05-24T08:18:42.007Z,98884.00
2023-05-24T08:21:09.268Z,98897.84
2023-05-24T08:23:36.641Z,98904.31
2023-05-24T08:26:03.870Z,98896.22
2023-05-24T08:28:30.735Z,98900.88
2023-05-24T08:30:59.359Z,98897.44
2023-05-24T08:33:26.317Z,98904.81
2023-05-24T08:35:53.418Z,98907.09
2023-05-24T08:38:20.183Z,98905.50
2023-05-24T08:40:47.871Z,98914.44
2023-05-24T08:43:14.685Z,98919.56
2023-05-24T08:45:42.027Z,98925.56
2023-05-24T08:48:09.452Z,98929.28
2023-05-24T08:50:36.597Z,98936.59
2023-05-24T08:53:03.533Z,98931.16
2023-05-24T08:55:33.719Z,98929.81
2023-05-24T08:58:00.583Z,98929.81
2023-05-24T09:00:27.735Z,98926.63
2023-05-24T09:02:54.620Z,98927.81
2023-05-24T09:05:22.151Z,98936.66
2023-05-24T09:07:49.734Z,98942.50
2023-05-24T09:10:17.167Z,98936.53
2023-05-24T09:12:48.911Z,98939.47
2023-05-24T09:15:15.959Z,98946.44
2023-05-24T09:17:42.905Z,98947.28
2023-05-24T09:20:11.256Z,98947.28
2023-05-24T09:22:41.278Z,98955.31
2023-05-24T09:25:09.983Z,98954.78
2023-05-24T09:27:37.646Z,98966.56
2023-05-24T09:30:09.185Z,98959.16
2023-05-24T09:32:36.052Z,98968.47
2023-05-24T09:35:03.212Z,98964.44
2023-05-24T09:37:32.898Z,98965.91
2023-05-24T09:40:00.493Z,98978.69
2023-05-24T09:42:28.913Z,98970.19
2023-05-24T09:45:06.682Z,98981.72
2023-05-24T09:47:34.888Z,98978.38
2023-05-24T09:50:02.929Z,98976.19
2023-05-24T09:52:29.826Z,98978.06
2023-05-24T09:54:56.884Z,98972.78
2023-05-24T09:57:23.817Z,98979.81
2023-05-24T09:59:51.832Z,98972.91
2023-05-24T10:02:22.904Z,98975.78
2023-05-24T10:04:57.373Z,98981.38
2023-05-24T10:07:24.174Z,98994.16
2023-05-24T10:09:51.757Z,98991.41
2023-05-24T10:12:18.987Z,98987.53
2023-05-24T10:14:46.111Z,98986.34
2023-05-24T10:17:13.041Z,98992.66
2023-05-24T10:19:41.592Z,98997.25
2023-05-24T10:22:08.970Z,99003.31
2023-05-24T10:24:41.170Z,99000.97
2023-05-24T10:27:10.304Z,99001.34
2023-05-24T10:29:45.335Z,99000.63
2023-05-24T10:32:13.653Z,99004.63
2023-05-24T10:34:41.003Z,99002.81
2023-05-24T10:37:09.618Z,99005.09
2023-05-24T10:39:37.317Z,99004.94
2023-05-24T10:42:06.666Z,98988.81
2023-05-24T10:44:35.937Z,99005.63
2023-05-24T10:47:13.284Z,99000.63
2023-05-24T10:49:53.416Z,99009.31
2023-05-24T10:52:20.621Z,99007.66
2023-05-24T10:55:10.500Z,99005.19
2023-05-24T10:57:38.460Z,99008.44
2023-05-24T11:00:41.017Z,99001.19
2023-05-24T11:03:09.175Z,99007.75
2023-05-24T11:05:49.886Z,99005.22
2023-05-24T11:08:26.389Z,99013.09
2023-05-24T11:11:22.044Z,99008.16
2023-05-24T11:13:56.023Z,99008.16
2023-05-24T11:16:37.845Z,99000.69
2023-05-24T11:19:18.636Z,99006.66
2023-05-24T11:21:46.313Z,99002.94
2023-05-24T11:24:13.222Z,99007.34
2023-05-24T11:26:41.192Z,99009.75
2023-05-24T11:29:08.035Z,99004.97
2023-05-24T11:31:42.447Z,99007.91
2023-05-24T11:34:10.886Z,99008.59
2023-05-24T11:36:37.988Z,99004.66
2023-05-24T11:39:08.410Z,99012.69
2023-05-24T11:41:38.847Z,98999.72
2023-05-24T11:44:07.347Z,99016.50
2023-05-24T11:46:34.537Z,99004.72
2023-05-24T11:49:01.395Z,99010.69
2023-05-24T11:51:33.064Z,99015.50
2023-05-24T11:54:00.213Z,99012.94
2023-05-24T11:56:30.936Z,99015.34
2023-05-24T11:59:11.343Z,99015.84
2023-05-24T12:01:38.460Z,99013.78
2023-05-24T12:04:06.049Z,99021.66
2023-05-24T12:06:43.340Z,99016.03
2023-05-24T12:09:13.471Z,99024.22
2023-05-24T12:11:41.490Z,99023.22
2023-05-24T12:14:14.512Z,99021.50
2023-05-24T12:16:45.556Z,99024.38
2023-05-24T12:19:31.674Z,99024.75
2023-05-24T12:22:00.320Z,99024.59
2023-05-24T12:24:27.644Z,99023.91
2023-05-24T12:27:02.168Z,99034.50
2023-05-24T12:29:35.686Z,99021.00
2023-05-24T12:32:03.092Z,99023.59
2023-05-24T12:34:30.056Z,99022.53
2023-05-24T12:36:57.260Z,99025.81
2023-05-24T12:39:31.074Z,99021.22
2023-05-24T12:41:58.803Z,99019.66
2023-05-24T12:44:26.520Z,99016.97
2023-05-24T12:46:54.328Z,99018.31
2023-05-24T12:49:21.487Z,99019.16
2023-05-24T12:51:49.600Z,99013.38
2023-05-24T12:54:19.257Z,99019.16
2023-05-24T12:56:46.343Z,99018.84
2023-05-24T12:59:13.123Z,99012.03
2023-05-24T13:01:40.350Z,99008.59
2023-05-24T13:04:07.386Z,99007.44
2023-05-24T13:06:34.440Z,99007.78
2023-05-24T13:09:02.073Z,99010.38
2023-05-24T13:11:31.149Z,99012.75
2023-05-24T13:13:59.675Z,99017.16
2023-05-24T13:16:26.927Z,99014.75
2023-05-24T13:18:53.971Z,99001.97
2023-05-24T13:21:21.637Z,99010.38
2023-05-24T13:23:48.414Z,99003.66
2023-05-24T13:26:15.498Z,99003.69
2023-05-24T13:28:58.692Z,99007.16
2023-05-24T13:31:30.604Z,99001.72
2023-05-24T13:33:57.733Z,99012.31
2023-05-24T13:36:24.807Z,99005.00
2023-05-24T13:38:59.493Z,99001.91
2023-05-24T13:41:34.428Z,99000.03
2023-05-24T13:44:01.320Z,99003.47
2023-05-24T13:46:29.128Z,99007.91
2023-05-24T13:48:56.981Z,99001.56
2023-05-24T13:51:24.275Z,99007.56
2023-05-24T13:53:51.137Z,99007.06
2023-05-24T13:56:18.697Z,99011.50
2023-05-24T13:58:45.894Z,99007.75
2023-05-24T14:01:13.031Z,99008.97
2023-05-24T14:03:41.132Z,99005.19
2023-05-24T14:06:09.200Z,99001.78
2023-05-24T14:08:36.190Z,98995.97
2023-05-24T14:11:03.324Z,99003.16
2023-05-24T14:16:00.213Z,99000.06
2023-05-24T14:18:27.069Z,98996.31
2023-05-24T14:20:54.132Z,98997.88
2023-05-24T14:23:21.000Z,99000.44
2023-05-24T14:25:48.101Z,99001.13
2023-05-24T14:28:14.860Z,98999.91
2023-05-24T14:30:42.169Z,98990.19
2023-05-24T14:33:11.510Z,99000.59
2023-05-24T14:35:39.916Z,98996.84
2023-05-24T14:38:07.834Z,98998.56
2023-05-24T14:40:36.990Z,99002.16
2023-05-24T14:43:04.859Z,98998.56
2023-05-24T14:45:32.311Z,98998.75
2023-05-24T14:48:00.827Z,98998.25
2023-05-24T14:50:28.189Z,99001.81
2023-05-24T14:52:55.742Z,98996.19
2023-05-24T14:55:23.066Z,99011.72
2023-05-24T14:57:50.056Z,99004.38
2023-05-24T15:00:20.575Z,99015.34
2023-05-24T15:02:49.287Z,99017.03
2023-05-24T15:05:16.866Z,99017.72
2023-05-24T15:07:43.618Z,99026.44
2023-05-24T15:10:11.109Z,99007.47
2023-05-24T15:12:38.147Z,99015.81
2023-05-24T15:15:06.832Z,99014.63
2023-05-24T15:17:33.767Z,99012.09
2023-05-24T15:20:01.092Z,99007.28
2023-05-24T15:22:27.884Z,99013.78
2023-05-24T15:24:54.960Z,99023.03
2023-05-24T15:27:22.024Z,99014.81
2023-05-24T15:29:49.130Z,99016.69
2023-05-24T15:32:15.890Z,99016.00
2023-05-24T15:34:42.985Z,99021.28
2023-05-24T15:37:09.855Z,99020.63
2023-05-24T15:39:36.955Z,99019.06
2023-05-24T15:42:03.865Z,99014.28
2023-05-24T15:44:31.571Z,99021.13
2023-05-24T15:46:58.400Z,99017.38
2023-05-24T15:49:25.761Z,99024.00
2023-05-24T15:54:22.496Z,99029.47
2023-05-24T15:56:50.014Z,99027.25
2023-05-24T15:59:17.812Z,99029.97
2023-05-24T16:01:45.342Z,99036.31
2023-05-24T16:04:12.879Z,99032.19
2023-05-24T16:06:39.712Z,99033.25
2023-05-24T16:09:08.138Z,99033.03
2023-05-24T16:11:35.785Z,99037.00
2023-05-24T16:14:03.680Z,99035.09
2023-05-24T16:16:30.667Z,99033.75
2023-05-24T16:18:57.847Z,99033.91
2023-05-24T16:21:24.803Z,99038.84
2023-05-24T16:23:51.923Z,99046.53
2023-05-24T16:26:18.663Z,99049.44
2023-05-24T16:28:45.768Z,99047.72
2023-05-24T16:31:12.598Z,99050.09
2023-05-24T16:33:39.956Z,99049.94
2023-05-24T16:36:06.860Z,99052.28
2023-05-24T16:38:34.012Z,99059.25
2023-05-24T16:41:00.819Z,99050.38
2023-05-24T16:43:27.904Z,99058.75
2023-05-24T16:45:55.306Z,99061.47
2023-05-24T16:48:28.284Z,99056.97
2023-05-24T16:50:58.354Z,99069.75
2023-05-24T16:53:26.858Z,99061.91
2023-05-24T16:55:54.844Z,99059.50
2023-05-24T16:58:25.385Z,99061.72
2023-05-24T17:00:54.525Z,99061.00
2023-05-24T17:03:27.743Z,99070.41
2023-05-24T17:05:55.568Z,99068.66
2023-05-24T17:08:22.786Z,99069.56
2023-05-24T17:10:55.816Z,99076.19
2023-05-24T17:13:23.716Z,99066.44
2023-05-24T17:15:53.839Z,99075.50
2023-05-24T17:18:27.747Z,99082.66
2023-05-24T17:21:01.769Z,99088.97
2023-05-24T17:23:33.770Z,99084.84
2023-05-24T17:26:01.440Z,99087.75
2023-05-24T17:28:28.572Z,99097.97
2023-05-24T17:30:59.446Z,99093.53
2023-05-24T17:33:27.966Z,99095.41
2023-05-24T17:35:57.999Z,99091.13
2023-05-24T17:38:25.329Z,99096.59
2023-05-24T17:40:57.155Z,99094.19
2023-05-24T17:43:25.172Z,99092.78
2023-05-24T17:45:52.095Z,99102.00
2023-05-24T17:48:19.194Z,99104.19
2023-05-24T17:50:45.925Z,99106.78
2023-05-24T17:53:29.922Z,99106.06
2023-05-24T17:55:58.142Z,99115.28
2023-05-24T17:58:25.294Z,99117.13
2023-05-24T18:00:52.236Z,99113.56
2023-05-24T18:03:19.346Z,99129.09
2023-05-24T18:05:46.391Z,99121.06
2023-05-24T18:08:13.473Z,99127.81
2023-05-24T18:10:40.454Z,99128.53
2023-05-24T18:13:11.225Z,99125.44
2023-05-24T18:15:38.020Z,99125.03
2023-05-24T18:18:05.293Z,99131.75
2023-05-24T18:20:32.167Z,99126.91
2023-05-24T18:22:59.363Z,99131.38
2023-05-24T18:25:26.390Z,99132.22
2023-05-24T18:27:53.436Z,99139.72
2023-05-24T18:30:20.322Z,99135.25
2023-05-24T18:33:03.611Z,99137.44
2023-05-24T18:35:32.561Z,99146.63
2023-05-24T18:37:59.653Z,99148.22
2023-05-24T18:40:26.533Z,99153.28
2023-05-24T18:42:53.692Z,99159.75
2023-05-24T18:45:20.567Z,99160.63
2023-05-24T18:47:47.824Z,99155.31
2023-05-24T18:50:14.726Z,99160.09
2023-05-24T18:52:41.874Z,99163.97
2023-05-24T18:55:10.909Z,99164.50
2023-05-24T18:57:38.210Z,99167.00
2023-05-24T19:00:06.991Z,99172.16
2023-05-24T19:02:39.065Z,99181.91
2023-05-24T19:05:07.391Z,99182.22
2023-05-24T19:07:35.241Z,99182.53
2023-05-24T19:10:02.173Z,99187.91
2023-05-24T19:12:30.157Z,99185.56
2023-05-24T19:14:57.315Z,99189.13
2023-05-24T19:17:25.111Z,99198.66
2023-05-24T19:19:52.190Z,99195.78
2023-05-24T19:22:19.435Z,99198.09
2023-05-24T19:24:46.240Z,99202.81
2023-05-24T19:27:14.708Z,99204.53
2023-05-24T19:29:41.536Z,99196.28
2023-05-24T19:32:08.955Z,99199.16
2023-05-24T19:34:37.385Z,99192.84
2023-05-24T19:37:04.673Z,99191.13
2023-05-24T19:39:31.975Z,99189.72
2023-05-24T19:41:59.019Z,99199.28
2023-05-24T19:44:25.974Z,99204.06
2023-05-24T19:46:53.190Z,99199.94
2023-05-24T19:49:20.015Z,99206.25
2023-05-24T19:51:47.158Z,99207.25
2023-05-24T19:54:14.848Z,99204.84
2023-05-24T19:56:42.018Z,99200.84
2023-05-24T19:59:08.836Z,99198.38
2023-05-24T20:01:36.123Z,99200.53
2023-05-24T20:04:03.122Z,99198.13
2023-05-24T20:06:31.522Z,99194.00
2023-05-24T20:08:59.792Z,99191.28
2023-05-24T20:11:28.125Z,99197.03
2023-05-24T20:13:56.189Z,99195.69
2023-05-24T20:16:23.551Z,99187.81
2023-05-24T20:18:50.432Z,99190.88
2023-05-24T20:21:17.795Z,99184.16
2023-05-24T20:23:44.559Z,99185.88
2023-05-24T20:26:11.762Z,99184.44
2023-05-24T20:28:38.543Z,99192.09
2023-05-24T20:31:06.388Z,99181.31
2023-05-24T20:33:37.816Z,99182.75
2023-05-24T20:36:05.461Z,99185.78
2023-05-24T20:38:32.309Z,99185.78
2023-05-24T20:40:59.984Z,99184.19
2023-05-24T20:43:26.819Z,99182.66
2023-05-24T20:45:54.185Z,99190.84
2023-05-24T20:48:21.186Z,99180.78
2023-05-24T20:50:48.398Z,99185.69
2023-05-24T20:53:15.231Z,99187.41
2023-05-24T20:55:42.521Z,99184.13
2023-05-24T20:58:09.483Z,99182.97
2023-05-24T21:00:38.862Z,99180.53
2023-05-24T21:03:06.764Z,99180.69
2023-05-24T21:05:36.382Z,99188.44
2023-05-24T21:08:03.774Z,99184.03
2023-05-24T21:10:32.288Z,99186.03
2023-05-24T21:12:59.054Z,99189.16
2023-05-24T21:15:26.161Z,99191.47
2023-05-24T21:17:52.971Z,99191.47
2023-05-24T21:20:20.219Z,99191.81
2023-05-24T21:22:47.330Z,99200.56
2023-05-24T21:25:14.538Z,99196.41
2023-05-24T21:27:41.282Z,99196.75
2023-05-24T21:30:08.980Z,99199.28
2023-05-24T21:32:35.813Z,99208.34
2023-05-24T21:35:02.887Z,99210.91
2023-05-24T21:37:29.722Z,99219.38
2023-05-24T21:39:56.948Z,99219.66
2023-05-24T21:42:23.702Z,99225.22
2023-05-24T21:44:50.765Z,99224.53
2023-05-24T21:47:17.597Z,99221.78
2023-05-24T21:49:44.809Z,99218.53
2023-05-24T21:52:11.701Z,99225.66
2023-05-24T21:54:38.811Z,99227.81
2023-05-24T21:57:07.350Z,99224.25
2023-05-24T21:59:34.497Z,99232.72
2023-05-24T22:02:01.407Z,99235.44
2023-05-24T22:04:28.514Z,99233.88
2023-05-24T22:06:55.443Z,99239.88
2023-05-24T22:09:22.506Z,99232.44
2023-05-24T22:11:49.272Z,99235.03
2023-05-24T22:14:16.486Z,99229.59
2023-05-24T22:16:43.329Z,99229.59
2023-05-24T22:19:16.666Z,99237.16
2023-05-24T22:21:45.932Z,99233.88
2023-05-24T22:24:13.698Z,99234.03
2023-05-24T22:26:47.121Z,99238.47
2023-05-24T22:29:14.511Z,99242.78
2023-05-24T22:31:41.548Z,99245.66
2023-05-24T22:34:11.243Z,99244.34
2023-05-24T22:36:39.042Z,99244.66
2023-05-24T22:39:06.393Z,99246.22
2023-05-24T22:41:33.286Z,99243.34
2023-05-24T22:44:00.403Z,99242.50
2023-05-24T22:46:27.252Z,99244.81
2023-05-24T22:48:56.775Z,99243.38
2023-05-24T22:51:23.787Z,99238.25
2023-05-24T22:53:52.752Z,99250.13
2023-05-24T22:56:19.685Z,99247.53
2023-05-24T22:58:46.784Z,99238.25
2023-05-24T23:01:15.164Z,99248.56
2023-05-24T23:03:42.380Z,99245.84
2023-05-24T23:06:11.992Z,99243.41
2023-05-24T23:08:39.358Z,99243.69
2023-05-24T23:11:10.294Z,99240.41
2023-05-24T23:13:37.712Z,99244.25
2023-05-24T23:16:05.596Z,99253.59
2023-05-24T23:18:33.035Z,99248.56
2023-05-24T23:21:01.047Z,99257.88
2023-05-24T23:23:28.093Z,99252.75
2023-05-24T23:25:54.855Z,99257.44
2023-05-24T23:28:21.926Z,99257.44
2023-05-24T23:30:48.678Z,99258.03
2023-05-24T23:33:15.971Z,99257.72
2023-05-24T23:35:42.952Z,99264.59
2023-05-24T23:38:10.172Z,99256.88
2023-05-24T23:40:37.001Z,99254.84
2023-05-24T23:43:04.344Z,99253.16
2023-05-24T23:45:31.305Z,99259.31
2023-05-24T23:47:58.817Z,99257.59
2023-05-24T23:50:27.310Z,99257.59
2023-05-24T23:52:54.691Z,99258.81
2023-05-24T23:55:22.297Z,99260.84
2023-05-24T23:57:49.837Z,99255.94
